sensor_id;sensor_type;location;lat;lon;timestamp;pressure;altitude;pressure_sealevel;temperature;humidity
37892;BME280;45797;47.466;9.486;2023-03-15T00:05:05;95289.59;;;6.08;66.61
37892;BME280;45797;47.466;9.486;2023-03-15T00:10:06;95296.28;;;5.98;67.13
37892;BME280;45797;47.466;9.486;2023-03-15T00:15:25;95309.75;;;5.90;67.13
37892;BME280;45797;47.466;9.486;2023-03-15T00:20:35;95348.03;;;5.87;66.92
37892;BME280;45797;47.466;9.486;2023-03-15T00:25:36;95450.47;;;5.68;67.98
37892;BME280;45797;47.466;9.486;2023-03-15T00:30:40;95501.63;;;4.75;68.62
37892;BME280;45797;47.466;9.486;2023-03-15T00:35:44;95478.34;;;4.09;70.02
37892;BME280;45797;47.466;9.486;2023-03-15T00:40:46;95476.84;;;3.87;70.48
37892;BME280;45797;47.466;9.486;2023-03-15T00:45:48;95466.94;;;3.78;70.82
37892;BME280;45797;47.466;9.486;2023-03-15T00:50:48;95487.16;;;3.71;70.51
37892;BME280;45797;47.466;9.486;2023-03-15T00:55:49;95461.34;;;3.70;70.37
37892;BME280;45797;47.466;9.486;2023-03-15T01:00:51;95473.22;;;3.74;70.06
37892;BME280;45797;47.466;9.486;2023-03-15T01:05:58;95472.22;;;3.77;70.04
37892;BME280;45797;47.466;9.486;2023-03-15T01:11:03;95492.38;;;3.87;69.69
37892;BME280;45797;47.466;9.486;2023-03-15T01:16:29;95504.03;;;3.96;69.42
37892;BME280;45797;47.466;9.486;2023-03-15T01:21:35;95514.63;;;4.09;69.27
37892;BME280;45797;47.466;9.486;2023-03-15T01:26:36;95528.00;;;4.17;69.22
37892;BME280;45797;47.466;9.486;2023-03-15T01:31:47;95531.28;;;4.20;69.18
37892;BME280;45797;47.466;9.486;2023-03-15T01:36:56;95544.78;;;4.27;69.91
37892;BME280;45797;47.466;9.486;2023-03-15T01:42:07;95559.84;;;4.36;69.57
37892;BME280;45797;47.466;9.486;2023-03-15T01:47:09;95570.72;;;4.43;69.21
37892;BME280;45797;47.466;9.486;2023-03-15T01:52:16;95575.53;;;4.50;69.17
37892;BME280;45797;47.466;9.486;2023-03-15T01:57:31;95599.31;;;4.58;68.75
37892;BME280;45797;47.466;9.486;2023-03-15T02:03:11;95606.47;;;4.53;68.70
37892;BME280;45797;47.466;9.486;2023-03-15T02:08:21;95608.59;;;4.63;69.47
37892;BME280;45797;47.466;9.486;2023-03-15T02:13:35;95616.22;;;4.66;68.86
37892;BME280;45797;47.466;9.486;2023-03-15T02:18:40;95604.59;;;4.73;69.08
37892;BME280;45797;47.466;9.486;2023-03-15T02:23:42;95610.31;;;4.79;68.78
37892;BME280;45797;47.466;9.486;2023-03-15T02:28:52;95626.81;;;4.78;68.53
37892;BME280;45797;47.466;9.486;2023-03-15T02:33:55;95643.81;;;4.84;69.12
37892;BME280;45797;47.466;9.486;2023-03-15T02:39:26;95658.19;;;4.74;68.64
37892;BME280;45797;47.466;9.486;2023-03-15T02:44:36;95688.03;;;4.48;69.73
37892;BME280;45797;47.466;9.486;2023-03-15T02:49:42;95708.50;;;4.35;70.37
37892;BME280;45797;47.466;9.486;2023-03-15T02:54:45;95718.72;;;4.21;70.52
37892;BME280;45797;47.466;9.486;2023-03-15T02:59:48;95739.06;;;4.11;70.00
37892;BME280;45797;47.466;9.486;2023-03-15T03:04:51;95731.47;;;4.07;70.02
37892;BME280;45797;47.466;9.486;2023-03-15T03:10:02;95739.13;;;4.10;70.42
37892;BME280;45797;47.466;9.486;2023-03-15T03:15:48;95740.81;;;4.11;69.90
37892;BME280;45797;47.466;9.486;2023-03-15T03:20:49;95744.00;;;4.16;69.87
37892;BME280;45797;47.466;9.486;2023-03-15T03:25:54;95747.22;;;4.21;69.56
37892;BME280;45797;47.466;9.486;2023-03-15T03:30:58;95759.13;;;4.25;69.81
37892;BME280;45797;47.466;9.486;2023-03-15T03:36:01;95767.69;;;4.27;69.71
37892;BME280;45797;47.466;9.486;2023-03-15T03:41:04;95774.53;;;4.28;69.86
37892;BME280;45797;47.466;9.486;2023-03-15T03:46:35;95775.47;;;4.27;69.80
37892;BME280;45797;47.466;9.486;2023-03-15T03:51:37;95787.97;;;4.36;69.84
37892;BME280;45797;47.466;9.486;2023-03-15T03:56:40;95786.06;;;4.40;69.62
37892;BME280;45797;47.466;9.486;2023-03-15T04:01:41;95789.41;;;4.42;69.43
37892;BME280;45797;47.466;9.486;2023-03-15T04:06:41;95797.19;;;4.42;69.91
37892;BME280;45797;47.466;9.486;2023-03-15T04:11:47;95806.53;;;4.46;69.30
37892;BME280;45797;47.466;9.486;2023-03-15T04:17:07;95805.06;;;4.40;69.01
37892;BME280;45797;47.466;9.486;2023-03-15T04:22:10;95815.59;;;4.37;69.72
37892;BME280;45797;47.466;9.486;2023-03-15T04:27:53;95821.97;;;4.30;69.79
37892;BME280;45797;47.466;9.486;2023-03-15T04:33:21;95817.97;;;4.23;70.09
37892;BME280;45797;47.466;9.486;2023-03-15T04:38:54;95821.91;;;4.13;69.99
37892;BME280;45797;47.466;9.486;2023-03-15T04:44:20;95832.41;;;4.10;70.18
37892;BME280;45797;47.466;9.486;2023-03-15T04:49:48;95842.22;;;4.03;69.71
37892;BME280;45797;47.466;9.486;2023-03-15T04:55:16;95850.13;;;4.00;70.10
37892;BME280;45797;47.466;9.486;2023-03-15T05:00:46;95859.84;;;3.95;70.00
37892;BME280;45797;47.466;9.486;2023-03-15T05:06:20;95860.84;;;3.92;69.87
37892;BME280;45797;47.466;9.486;2023-03-15T05:11:36;95868.09;;;3.84;70.39
37892;BME280;45797;47.466;9.486;2023-03-15T05:16:47;95874.53;;;3.76;70.30
37892;BME280;45797;47.466;9.486;2023-03-15T05:22:06;95870.66;;;3.65;70.33
37892;BME280;45797;47.466;9.486;2023-03-15T05:27:24;95877.28;;;3.52;70.80
37892;BME280;45797;47.466;9.486;2023-03-15T05:32:49;95890.69;;;3.41;70.95
37892;BME280;45797;47.466;9.486;2023-03-15T05:38:18;95898.03;;;3.30;70.24
37892;BME280;45797;47.466;9.486;2023-03-15T05:43:39;95909.50;;;3.25;71.29
37892;BME280;45797;47.466;9.486;2023-03-15T05:49:16;95909.81;;;3.17;71.11
37892;BME280;45797;47.466;9.486;2023-03-15T05:54:37;95915.84;;;3.18;71.07
37892;BME280;45797;47.466;9.486;2023-03-15T05:59:59;95921.09;;;3.16;70.88
37892;BME280;45797;47.466;9.486;2023-03-15T06:05:15;95921.84;;;3.18;71.03
37892;BME280;45797;47.466;9.486;2023-03-15T06:10:24;95938.03;;;3.23;70.84
37892;BME280;45797;47.466;9.486;2023-03-15T06:15:27;95934.28;;;3.30;70.93
37892;BME280;45797;47.466;9.486;2023-03-15T06:20:31;95935.66;;;3.39;70.34
37892;BME280;45797;47.466;9.486;2023-03-15T06:25:39;95939.50;;;3.51;70.77
37892;BME280;45797;47.466;9.486;2023-03-15T06:30:46;95941.41;;;3.66;69.89
37892;BME280;45797;47.466;9.486;2023-03-15T06:35:50;95946.03;;;3.80;69.70
37892;BME280;45797;47.466;9.486;2023-03-15T06:40:52;95949.06;;;3.89;69.23
37892;BME280;45797;47.466;9.486;2023-03-15T06:45:54;95951.88;;;4.04;69.55
37892;BME280;45797;47.466;9.486;2023-03-15T06:51:04;95947.06;;;4.15;68.61
37892;BME280;45797;47.466;9.486;2023-03-15T06:56:15;95948.28;;;4.26;68.51
37892;BME280;45797;47.466;9.486;2023-03-15T07:01:19;95957.94;;;4.42;68.13
37892;BME280;45797;47.466;9.486;2023-03-15T07:06:23;95957.38;;;4.54;68.43
37892;BME280;45797;47.466;9.486;2023-03-15T07:11:27;95960.19;;;4.68;67.42
37892;BME280;45797;47.466;9.486;2023-03-15T07:16:34;95968.25;;;4.81;67.63
37892;BME280;45797;47.466;9.486;2023-03-15T07:21:35;95966.63;;;4.97;67.35
37892;BME280;45797;47.466;9.486;2023-03-15T07:26:50;95965.25;;;5.07;66.69
37892;BME280;45797;47.466;9.486;2023-03-15T07:31:56;95977.34;;;5.26;66.61
37892;BME280;45797;47.466;9.486;2023-03-15T07:36:58;95974.88;;;5.41;66.54
37892;BME280;45797;47.466;9.486;2023-03-15T07:41:59;95976.03;;;5.53;66.12
37892;BME280;45797;47.466;9.486;2023-03-15T07:47:05;95985.72;;;5.67;65.94
37892;BME280;45797;47.466;9.486;2023-03-15T07:52:06;95978.94;;;5.82;65.70
37892;BME280;45797;47.466;9.486;2023-03-15T07:57:07;95975.09;;;5.89;64.87
37892;BME280;45797;47.466;9.486;2023-03-15T08:02:11;95971.06;;;6.00;65.52
37892;BME280;45797;47.466;9.486;2023-03-15T08:07:16;95974.72;;;6.14;64.80
37892;BME280;45797;47.466;9.486;2023-03-15T08:12:18;95977.53;;;6.26;64.40
37892;BME280;45797;47.466;9.486;2023-03-15T08:17:34;95977.06;;;6.36;64.07
37892;BME280;45797;47.466;9.486;2023-03-15T08:22:46;95980.16;;;6.42;63.86
37892;BME280;45797;47.466;9.486;2023-03-15T08:27:59;95968.81;;;6.43;63.96
37892;BME280;45797;47.466;9.486;2023-03-15T08:33:08;95969.13;;;6.54;63.93
37892;BME280;45797;47.466;9.486;2023-03-15T08:38:20;95984.91;;;6.67;63.58
37892;BME280;45797;47.466;9.486;2023-03-15T08:43:23;95983.66;;;6.90;62.54
37892;BME280;45797;47.466;9.486;2023-03-15T08:48:24;95980.78;;;7.10;62.53
37892;BME280;45797;47.466;9.486;2023-03-15T08:53:34;95968.13;;;7.20;62.29
37892;BME280;45797;47.466;9.486;2023-03-15T08:58:36;95975.16;;;7.34;61.93
37892;BME280;45797;47.466;9.486;2023-03-15T09:03:36;95984.63;;;7.51;61.39
37892;BME280;45797;47.466;9.486;2023-03-15T09:08:38;95985.94;;;7.58;61.61
37892;BME280;45797;47.466;9.486;2023-03-15T09:13:45;95977.38;;;7.56;61.08
37892;BME280;45797;47.466;9.486;2023-03-15T09:18:46;95979.22;;;7.54;61.24
37892;BME280;45797;47.466;9.486;2023-03-15T09:23:58;95973.69;;;7.60;61.07
37892;BME280;45797;47.466;9.486;2023-03-15T09:29:00;95984.13;;;7.74;61.09
37892;BME280;45797;47.466;9.486;2023-03-15T09:34:01;95983.81;;;7.94;60.45
37892;BME280;45797;47.466;9.486;2023-03-15T09:39:05;95986.81;;;8.02;60.25
37892;BME280;45797;47.466;9.486;2023-03-15T09:49:24;95982.56;;;8.30;59.72
37892;BME280;45797;47.466;9.486;2023-03-15T09:55:10;95983.34;;;8.46;59.40
37892;BME280;45797;47.466;9.486;2023-03-15T10:00:20;95990.06;;;8.65;58.55
37892;BME280;45797;47.466;9.486;2023-03-15T10:05:27;95989.69;;;8.71;58.55
37892;BME280;45797;47.466;9.486;2023-03-15T10:10:50;95990.34;;;8.74;58.44
37892;BME280;45797;47.466;9.486;2023-03-15T10:16:03;95992.84;;;8.76;58.24
37892;BME280;45797;47.466;9.486;2023-03-15T10:21:39;95991.19;;;8.75;58.54
37892;BME280;45797;47.466;9.486;2023-03-15T10:27:08;95994.03;;;8.99;57.47
37892;BME280;45797;47.466;9.486;2023-03-15T10:32:27;95992.13;;;9.15;57.35
37892;BME280;45797;47.466;9.486;2023-03-15T10:37:35;95986.03;;;9.56;56.19
37892;BME280;45797;47.466;9.486;2023-03-15T10:42:37;95973.34;;;9.77;55.92
37892;BME280;45797;47.466;9.486;2023-03-15T10:47:42;95974.75;;;9.95;55.58
37892;BME280;45797;47.466;9.486;2023-03-15T10:52:44;95974.09;;;9.79;55.69
37892;BME280;45797;47.466;9.486;2023-03-15T10:57:58;95972.09;;;9.42;56.39
37892;BME280;45797;47.466;9.486;2023-03-15T11:03:22;95981.00;;;9.26;56.81
37892;BME280;45797;47.466;9.486;2023-03-15T11:08:35;95961.13;;;9.23;56.25
37892;BME280;45797;47.466;9.486;2023-03-15T11:13:38;95960.25;;;9.37;56.06
37892;BME280;45797;47.466;9.486;2023-03-15T11:18:45;95956.56;;;9.66;55.35
37892;BME280;45797;47.466;9.486;2023-03-15T11:23:48;95952.75;;;9.97;54.24
37892;BME280;45797;47.466;9.486;2023-03-15T11:45:44;95942.53;;;10.71;52.50
37892;BME280;45797;47.466;9.486;2023-03-15T11:51:35;95934.94;;;10.79;52.18
37892;BME280;45797;47.466;9.486;2023-03-15T12:07:29;95908.88;;;11.49;50.36
37892;BME280;45797;47.466;9.486;2023-03-15T12:12:34;95918.03;;;11.67;49.86
37892;BME280;45797;47.466;9.486;2023-03-15T12:17:56;95905.06;;;11.53;50.32
37892;BME280;45797;47.466;9.486;2023-03-15T12:34:02;95905.13;;;12.11;48.43
37892;BME280;45797;47.466;9.486;2023-03-15T12:39:32;95902.38;;;11.90;48.62
37892;BME280;45797;47.466;9.486;2023-03-15T12:44:44;95890.69;;;11.59;49.08
37892;BME280;45797;47.466;9.486;2023-03-15T12:49:45;95896.56;;;11.38;48.45
37892;BME280;45797;47.466;9.486;2023-03-15T12:59:56;95885.69;;;11.08;49.48
37892;BME280;45797;47.466;9.486;2023-03-15T13:05:23;95883.28;;;11.64;48.57
37892;BME280;45797;47.466;9.486;2023-03-15T13:21:35;95901.25;;;11.22;48.93
37892;BME280;45797;47.466;9.486;2023-03-15T13:26:59;95899.19;;;11.73;48.22
37892;BME280;45797;47.466;9.486;2023-03-15T13:32:13;95897.25;;;11.99;47.55
37892;BME280;45797;47.466;9.486;2023-03-15T13:37:24;95904.44;;;12.20;47.00
37892;BME280;45797;47.466;9.486;2023-03-15T13:42:26;95896.31;;;12.12;46.66
37892;BME280;45797;47.466;9.486;2023-03-15T13:47:44;95914.16;;;11.84;47.26
37892;BME280;45797;47.466;9.486;2023-03-15T13:52:47;95912.41;;;11.72;46.89
37892;BME280;45797;47.466;9.486;2023-03-15T13:58:07;95909.03;;;11.59;46.89
37892;BME280;45797;47.466;9.486;2023-03-15T14:03:13;95907.53;;;11.43;46.95
37892;BME280;45797;47.466;9.486;2023-03-15T14:08:36;95904.16;;;11.30;46.96
37892;BME280;45797;47.466;9.486;2023-03-15T14:19:22;95894.72;;;11.63;46.34
37892;BME280;45797;47.466;9.486;2023-03-15T14:29:35;95896.34;;;12.23;44.76
37892;BME280;45797;47.466;9.486;2023-03-15T14:34:47;95886.75;;;12.89;43.94
37892;BME280;45797;47.466;9.486;2023-03-15T14:39:49;95899.03;;;13.00;43.79
37892;BME280;45797;47.466;9.486;2023-03-15T14:44:56;95892.16;;;12.65;44.34
37892;BME280;45797;47.466;9.486;2023-03-15T14:49:59;95886.19;;;12.41;44.71
37892;BME280;45797;47.466;9.486;2023-03-15T14:55:01;95882.72;;;12.40;44.61
37892;BME280;45797;47.466;9.486;2023-03-15T15:00:16;95877.34;;;12.64;44.42
37892;BME280;45797;47.466;9.486;2023-03-15T15:05:31;95877.84;;;13.12;43.92
37892;BME280;45797;47.466;9.486;2023-03-15T15:10:34;95875.22;;;13.12;44.10
37892;BME280;45797;47.466;9.486;2023-03-15T15:15:43;95882.16;;;13.13;44.00
37892;BME280;45797;47.466;9.486;2023-03-15T15:20:44;95878.56;;;13.14;44.34
37892;BME280;45797;47.466;9.486;2023-03-15T15:26:01;95876.06;;;13.45;43.86
37892;BME280;45797;47.466;9.486;2023-03-15T15:31:13;95874.81;;;13.60;43.54
37892;BME280;45797;47.466;9.486;2023-03-15T15:36:25;95868.94;;;13.68;43.92
37892;BME280;45797;47.466;9.486;2023-03-15T15:41:27;95872.41;;;13.89;43.86
37892;BME280;45797;47.466;9.486;2023-03-15T15:46:46;95874.09;;;14.42;43.20
37892;BME280;45797;47.466;9.486;2023-03-15T15:51:48;95866.56;;;14.37;42.86
37892;BME280;45797;47.466;9.486;2023-03-15T15:57:08;95883.91;;;13.88;43.32
37892;BME280;45797;47.466;9.486;2023-03-15T16:02:13;95896.69;;;13.40;44.42
37892;BME280;45797;47.466;9.486;2023-03-15T16:07:16;95900.19;;;13.07;44.88
37892;BME280;45797;47.466;9.486;2023-03-15T16:12:18;95904.81;;;12.60;45.43
37892;BME280;45797;47.466;9.486;2023-03-15T16:17:22;95918.91;;;12.48;45.27
37892;BME280;45797;47.466;9.486;2023-03-15T16:22:23;95915.06;;;12.41;44.87
37892;BME280;45797;47.466;9.486;2023-03-15T16:27:28;95923.44;;;12.35;44.62
37892;BME280;45797;47.466;9.486;2023-03-15T16:32:30;95928.06;;;12.20;45.07
37892;BME280;45797;47.466;9.486;2023-03-15T16:37:31;95943.34;;;12.04;45.17
37892;BME280;45797;47.466;9.486;2023-03-15T16:42:33;95952.34;;;11.88;45.41
37892;BME280;45797;47.466;9.486;2023-03-15T16:47:34;95956.44;;;11.68;45.67
37892;BME280;45797;47.466;9.486;2023-03-15T16:52:35;95962.78;;;11.53;46.01
37892;BME280;45797;47.466;9.486;2023-03-15T16:57:37;95972.50;;;11.40;45.89
37892;BME280;45797;47.466;9.486;2023-03-15T17:02:38;95977.75;;;11.40;45.88
37892;BME280;45797;47.466;9.486;2023-03-15T17:07:47;95972.84;;;11.59;45.42
37892;BME280;45797;47.466;9.486;2023-03-15T17:12:55;95976.97;;;11.51;45.53
37892;BME280;45797;47.466;9.486;2023-03-15T17:18:17;95983.91;;;11.15;46.25
37892;BME280;45797;47.466;9.486;2023-03-15T17:23:19;95996.59;;;10.72;46.71
37892;BME280;45797;47.466;9.486;2023-03-15T17:28:21;96004.63;;;10.30;47.41
37892;BME280;45797;47.466;9.486;2023-03-15T17:33:28;96014.38;;;9.89;48.11
37892;BME280;45797;47.466;9.486;2023-03-15T17:38:29;96023.56;;;9.55;48.46
37892;BME280;45797;47.466;9.486;2023-03-15T17:43:40;96029.19;;;9.22;48.71
37892;BME280;45797;47.466;9.486;2023-03-15T17:48:44;96036.88;;;8.96;49.02
37892;BME280;45797;47.466;9.486;2023-03-15T17:53:50;96030.25;;;8.76;49.33
37892;BME280;45797;47.466;9.486;2023-03-15T17:59:03;96034.91;;;8.57;49.05
37892;BME280;45797;47.466;9.486;2023-03-15T18:04:17;96037.44;;;8.44;49.20
37892;BME280;45797;47.466;9.486;2023-03-15T18:09:19;96048.41;;;8.35;49.58
37892;BME280;45797;47.466;9.486;2023-03-15T18:14:22;96053.22;;;8.27;49.65
37892;BME280;45797;47.466;9.486;2023-03-15T18:19:34;96049.56;;;8.15;49.84
37892;BME280;45797;47.466;9.486;2023-03-15T18:24:50;96060.59;;;8.05;49.34
37892;BME280;45797;47.466;9.486;2023-03-15T18:29:50;96055.00;;;7.96;49.65
37892;BME280;45797;47.466;9.486;2023-03-15T18:34:53;96065.03;;;7.88;49.71
37892;BME280;45797;47.466;9.486;2023-03-15T18:40:15;96064.94;;;7.74;50.09
37892;BME280;45797;47.466;9.486;2023-03-15T18:45:28;96067.13;;;7.66;50.14
37892;BME280;45797;47.466;9.486;2023-03-15T18:50:35;96070.63;;;7.51;50.19
37892;BME280;45797;47.466;9.486;2023-03-15T18:55:43;96063.41;;;7.40;50.07
37892;BME280;45797;47.466;9.486;2023-03-15T19:00:45;96063.81;;;7.32;49.91
37892;BME280;45797;47.466;9.486;2023-03-15T19:05:48;96063.47;;;7.23;50.77
37892;BME280;45797;47.466;9.486;2023-03-15T19:10:56;96072.63;;;7.14;50.21
37892;BME280;45797;47.466;9.486;2023-03-15T19:15:57;96072.94;;;7.08;50.37
37892;BME280;45797;47.466;9.486;2023-03-15T19:20:58;96066.38;;;7.01;50.91
37892;BME280;45797;47.466;9.486;2023-03-15T19:25:58;96065.97;;;6.93;50.75
37892;BME280;45797;47.466;9.486;2023-03-15T19:31:03;96061.09;;;6.86;50.77
37892;BME280;45797;47.466;9.486;2023-03-15T19:36:21;96063.41;;;6.75;50.69
37892;BME280;45797;47.466;9.486;2023-03-15T19:41:25;96066.78;;;6.77;51.03
37892;BME280;45797;47.466;9.486;2023-03-15T19:46:33;96057.78;;;6.67;51.27
37892;BME280;45797;47.466;9.486;2023-03-15T19:51:33;96064.97;;;6.62;50.94
37892;BME280;45797;47.466;9.486;2023-03-15T19:56:33;96057.50;;;6.56;51.37
37892;BME280;45797;47.466;9.486;2023-03-15T20:01:37;96063.69;;;6.53;51.33
37892;BME280;45797;47.466;9.486;2023-03-15T20:06:37;96060.56;;;6.47;51.48
37892;BME280;45797;47.466;9.486;2023-03-15T20:11:38;96066.16;;;6.39;51.67
37892;BME280;45797;47.466;9.486;2023-03-15T20:16:40;96063.84;;;6.33;51.44
37892;BME280;45797;47.466;9.486;2023-03-15T20:21:41;96062.56;;;6.24;51.74
37892;BME280;45797;47.466;9.486;2023-03-15T20:26:43;96078.63;;;6.15;51.51
37892;BME280;45797;47.466;9.486;2023-03-15T20:31:51;96080.78;;;6.07;51.70
37892;BME280;45797;47.466;9.486;2023-03-15T20:37:12;96104.69;;;5.96;52.24
37892;BME280;45797;47.466;9.486;2023-03-15T20:42:13;96116.38;;;5.88;52.63
37892;BME280;45797;47.466;9.486;2023-03-15T20:47:16;96101.06;;;5.82;52.86
37892;BME280;45797;47.466;9.486;2023-03-15T20:52:16;96100.59;;;5.73;52.66
37892;BME280;45797;47.466;9.486;2023-03-15T20:57:19;96106.88;;;5.69;52.28
37892;BME280;45797;47.466;9.486;2023-03-15T21:02:29;96110.50;;;5.65;52.68
37892;BME280;45797;47.466;9.486;2023-03-15T21:07:38;96114.94;;;5.63;52.61
37892;BME280;45797;47.466;9.486;2023-03-15T21:12:47;96111.66;;;5.60;52.41
37892;BME280;45797;47.466;9.486;2023-03-15T21:17:48;96116.00;;;5.59;53.13
37892;BME280;45797;47.466;9.486;2023-03-15T21:22:49;96126.41;;;5.59;52.92
37892;BME280;45797;47.466;9.486;2023-03-15T21:27:51;96115.84;;;5.62;52.74
37892;BME280;45797;47.466;9.486;2023-03-15T21:32:52;96120.91;;;5.65;52.76
37892;BME280;45797;47.466;9.486;2023-03-15T21:38:06;96110.34;;;5.68;52.37
37892;BME280;45797;47.466;9.486;2023-03-15T21:43:08;96121.22;;;5.77;52.98
37892;BME280;45797;47.466;9.486;2023-03-15T21:48:09;96114.25;;;5.77;52.84
37892;BME280;45797;47.466;9.486;2023-03-15T21:53:10;96110.97;;;5.73;53.01
37892;BME280;45797;47.466;9.486;2023-03-15T21:58:11;96114.50;;;5.72;52.83
37892;BME280;45797;47.466;9.486;2023-03-15T22:03:16;96113.59;;;5.73;52.47
37892;BME280;45797;47.466;9.486;2023-03-15T22:08:32;96115.69;;;5.65;53.04
37892;BME280;45797;47.466;9.486;2023-03-15T22:13:41;96131.44;;;5.62;53.65
37892;BME280;45797;47.466;9.486;2023-03-15T22:18:50;96125.75;;;5.54;53.68
37892;BME280;45797;47.466;9.486;2023-03-15T22:23:52;96122.59;;;5.48;53.76
37892;BME280;45797;47.466;9.486;2023-03-15T22:28:52;96124.84;;;5.36;54.06
37892;BME280;45797;47.466;9.486;2023-03-15T22:33:53;96119.88;;;5.32;54.14
37892;BME280;45797;47.466;9.486;2023-03-15T22:39:00;96123.03;;;5.20;54.68
37892;BME280;45797;47.466;9.486;2023-03-15T22:44:17;96134.13;;;5.04;54.59
37892;BME280;45797;47.466;9.486;2023-03-15T22:49:20;96133.28;;;5.04;55.07
37892;BME280;45797;47.466;9.486;2023-03-15T22:54:20;96132.03;;;4.92;55.11
37892;BME280;45797;47.466;9.486;2023-03-15T22:59:26;96128.91;;;4.85;54.81
37892;BME280;45797;47.466;9.486;2023-03-15T23:04:29;96133.44;;;4.80;55.16
37892;BME280;45797;47.466;9.486;2023-03-15T23:09:30;96126.91;;;4.72;55.20
37892;BME280;45797;47.466;9.486;2023-03-15T23:14:41;96117.72;;;4.65;55.31
37892;BME280;45797;47.466;9.486;2023-03-15T23:19:42;96117.00;;;4.61;55.52
37892;BME280;45797;47.466;9.486;2023-03-15T23:24:44;96106.94;;;4.53;55.67
37892;BME280;45797;47.466;9.486;2023-03-15T23:29:50;96111.44;;;4.50;55.89
37892;BME280;45797;47.466;9.486;2023-03-15T23:34:50;96115.19;;;4.43;56.10
37892;BME280;45797;47.466;9.486;2023-03-15T23:39:52;96116.31;;;4.37;55.76
37892;BME280;45797;47.466;9.486;2023-03-15T23:44:54;96119.81;;;4.36;55.93
37892;BME280;45797;47.466;9.486;2023-03-15T23:49:54;96115.56;;;4.34;56.24
37892;BME280;45797;47.466;9.486;2023-03-15T23:54:54;96120.97;;;4.29;56.22
37892;BME280;45797;47.466;9.486;2023-03-15T23:59:56;96102.91;;;4.27;55.92
